Terminal Aerodrome Forecast
Issued by NWS Cleveland, OH

Home | Current Version | Previous Version | Graphics & Text | Print | Product List | Glossary On
Versions: 1 2 3 4 5 6 7 8 9 10 11 12 13 14 15 16 17 18 19 20 21 22
593
FTUS41 KCLE 210955 AAA
TAFCAK
TAF AMD
KCAK 210955Z 2110/2206 21005KT 1SM -DZ BR OVC004
     FM211900 19008KT 4SM -DZ BR OVC008
     FM220500 18008KT 2SM BR OVC004=

USA.gov is the U.S. government's official web portal to all federal, state and local government web resources and services.